Sunday, December 17, 2017, 4:07 PM EST
Back to Local

KFRG, Farmingdale Republic Airport

Location: Farmingdale, NY, United States Lat: 40.733
Local Time: 4:07 PM EST (21:07 GMT) Lon: -73.417
Time Zone: US/Eastern Elev: 82 ft

Show me the last for .
Show Coded

Time T Td Feel RH Dir Speed Gust Alt SLP Vis Weather Sky Remarks
2017-12-17 15:53 34 24 31 66 160° 3 - 30.26 30.26 10 CLR None
2017-12-17 14:53 34 23 - 63 - Calm - 30.24 30.24 10 CLR None
2017-12-17 13:53 33 22 - 63 - Calm - 30.24 30.24 10 FEW047 None
2017-12-17 12:53 33 22 30 63 110° 3 - 30.26 30.26 10 OVC045 6-hr Min Temp (1pm): 28.9°F
6-hr Max Temp (1pm): 33.1°F
2017-12-17 11:53 32 21 - 63 - Calm - 30.28 30.28 10 OVC045 None
2017-12-17 10:53 31 21 - 66 - Calm - 30.30 30.30 10 OVC039 None
2017-12-17 09:53 31 21 26 66 130° 5 - 30.31 30.31 10 OVC039 None
2017-12-17 08:53 31 21 - 66 - Calm - 30.30 30.29 10 FEW039 OVC060 None
2017-12-17 07:53 30 22 - 71 - Calm - 30.29 30.29 10 OVC037 None
2017-12-17 06:53 30 20 26 65 60° 3 - 30.27 30.27 10 FEW038 BKN065 6-hr Min Temp (7am): 30.0°F
6-hr Max Temp (7am): 34.0°F
2017-12-17 05:53 31 21 26 66 50° 5 - 30.26 30.26 10 OVC038 None
2017-12-17 04:53 31 22 27 68 20° 3 - 30.27 30.27 10 OVC038 None
2017-12-17 03:53 31 22 27 68 60° 3 - 30.25 30.25 10 OVC043 None
2017-12-17 02:53 32 22 27 65 60° 5 - 30.25 30.25 10 BKN036 OVC055 None
2017-12-17 01:53 33 23 - 66 - Calm - 30.23 30.23 10 OVC035 None
2017-12-17 00:53 34 23 - 63 - Calm - 30.21 30.21 10 OVC034 6-hr Min Temp (1am): 34.0°F
6-hr Max Temp (1am): 37.9°F
2017-12-16 23:53 34 22 29 60 350° 6 - 30.19 30.19 10 FEW034 OVC060 24-hr Min Temp (12am): 19.9°F
24-hr Max Temp (12am): 37.9°F
2017-12-16 22:53 35 22 29 58 330° 8 - 30.20 30.20 10 OVC035 None
2017-12-16 21:53 36 24 30 61 330° 8 - 30.17 30.17 10 OVC036 None
2017-12-16 20:53 36 26 30 66 340° 7 - 30.15 30.15 10 OVC037 None
2017-12-16 19:53 37 26 32 64 320° 7 - 30.13 30.13 10 OVC039 None
2017-12-16 18:53 38 25 34 59 340° 5 - 30.09 30.09 10 OVC043 6-hr Min Temp (7pm): 36.0°F
6-hr Max Temp (7pm): 37.9°F
2017-12-16 17:53 38 25 31 59 280° 9 - 30.06 30.06 10 OVC044 None
2017-12-16 16:53 38 25 30 59 270° 13 - 30.03 30.03 10 OVC044 None

Support USWX by starting your Amazon purchase here.